createdAt,value
2023-04-11T00:03:16.968Z,5.67
2023-04-11T00:08:18.773Z,5.63
2023-04-11T00:13:20.435Z,5.60
2023-04-11T00:18:22.895Z,5.58
2023-04-11T00:23:24.484Z,5.53
2023-04-11T00:28:26.133Z,5.48
2023-04-11T00:33:27.875Z,5.46
2023-04-11T00:38:29.725Z,5.49
2023-04-11T00:43:31.540Z,5.49
2023-04-11T00:48:33.405Z,5.35
2023-04-11T00:53:37.209Z,5.34
2023-04-11T00:58:40.886Z,5.31
2023-04-11T01:03:42.785Z,5.17
2023-04-11T01:08:47.124Z,5.16
2023-04-11T01:13:50.316Z,5.09
2023-04-11T01:18:52.212Z,5.02
2023-04-11T01:23:54.265Z,4.99
2023-04-11T01:28:57.301Z,4.98
2023-04-11T01:34:01.318Z,4.94
2023-04-11T01:39:03.187Z,4.89
2023-04-11T01:44:05.741Z,4.91
2023-04-11T01:49:07.938Z,4.85
2023-04-11T01:54:09.765Z,4.73
2023-04-11T01:59:12.896Z,4.63
2023-04-11T02:04:14.930Z,4.54
2023-04-11T02:09:16.908Z,4.44
2023-04-11T02:14:20.417Z,4.35
2023-04-11T02:19:23.465Z,4.34
2023-04-11T02:24:28.351Z,4.27
2023-04-11T02:29:30.776Z,4.19
2023-04-11T02:34:32.449Z,4.13
2023-04-11T02:39:34.046Z,4.05
2023-04-11T02:44:35.766Z,4.01
2023-04-11T02:49:41.842Z,3.94
2023-04-11T02:54:46.126Z,3.93
2023-04-11T02:59:48.022Z,3.82
2023-04-11T03:04:55.495Z,3.72
2023-04-11T03:09:57.306Z,3.66
2023-04-11T03:15:00.220Z,3.69
2023-04-11T03:20:02.596Z,3.72
2023-04-11T03:25:06.476Z,3.77
2023-04-11T03:30:08.814Z,3.64
2023-04-11T03:35:18.736Z,3.65
2023-04-11T03:40:22.306Z,3.65
2023-04-11T03:45:29.876Z,3.68
2023-04-11T03:50:34.685Z,3.71
2023-04-11T03:55:37.986Z,3.78
2023-04-11T04:00:42.167Z,3.83
2023-04-11T04:05:44.693Z,3.81
2023-04-11T04:10:47.880Z,3.86
2023-04-11T04:15:51.537Z,3.80
2023-04-11T04:20:57.794Z,3.76
2023-04-11T04:26:02.292Z,3.76
2023-04-11T04:31:08.493Z,3.76
2023-04-11T04:36:17.779Z,3.86
2023-04-11T04:41:22.095Z,3.87
2023-04-11T04:46:36.650Z,3.93
2023-04-11T04:51:40.620Z,4.00
2023-04-11T04:56:44.070Z,4.10
2023-04-11T05:01:50.751Z,4.19
2023-04-11T05:06:57.486Z,4.31
2023-04-11T05:11:59.293Z,4.38
2023-04-11T05:17:01.092Z,4.48
2023-04-11T05:22:03.975Z,4.59
2023-04-11T05:27:09.675Z,4.66
2023-04-11T05:32:11.458Z,4.73
2023-04-11T05:37:13.171Z,4.86
2023-04-11T05:42:17.869Z,5.00
2023-04-11T05:47:19.477Z,5.11
2023-04-11T05:52:21.142Z,5.24
2023-04-11T05:57:23.557Z,5.37
2023-04-11T06:02:25.742Z,5.49
2023-04-11T06:07:27.638Z,5.53
2023-04-11T06:12:29.341Z,5.67
2023-04-11T06:17:31.151Z,5.80
2023-04-11T06:22:33.019Z,5.99
2023-04-11T06:27:34.714Z,6.20
2023-04-11T06:32:36.382Z,6.48
2023-04-11T06:37:38.144Z,6.74
2023-04-11T06:42:39.816Z,7.08
2023-04-11T06:47:41.448Z,7.35
2023-04-11T06:52:43.084Z,7.60
2023-04-11T06:57:44.920Z,7.86
2023-04-11T07:02:47.048Z,8.16
2023-04-11T07:07:49.098Z,8.53
2023-04-11T07:12:50.798Z,9.06
2023-04-11T07:17:52.997Z,9.34
2023-04-11T07:22:56.637Z,9.56
2023-04-11T07:27:58.617Z,9.99
2023-04-11T07:33:00.723Z,10.33
2023-04-11T07:38:02.391Z,10.58
2023-04-11T07:43:04.234Z,10.90
2023-04-11T07:48:06.281Z,11.12
2023-04-11T07:53:11.048Z,11.46
2023-04-11T07:58:12.726Z,11.69
2023-04-11T08:03:14.570Z,11.80
2023-04-11T08:08:16.584Z,11.94
2023-04-11T08:13:18.367Z,12.08
2023-04-11T08:18:21.686Z,12.15
2023-04-11T08:23:23.636Z,12.28
2023-04-11T08:28:25.345Z,12.59
2023-04-11T08:33:27.464Z,12.99
2023-04-11T08:38:29.039Z,13.19
2023-04-11T08:43:34.322Z,13.41
2023-04-11T08:48:36.197Z,13.57
2023-04-11T08:53:39.935Z,13.62
2023-04-11T08:58:43.507Z,13.57
2023-04-11T09:03:51.928Z,13.65
2023-04-11T09:08:53.631Z,13.74
2023-04-11T09:14:08.807Z,13.88
2023-04-11T09:19:26.339Z,13.92
2023-04-11T09:24:29.648Z,13.98
2023-04-11T09:29:38.408Z,14.15
2023-04-11T09:34:41.987Z,14.45
2023-04-11T09:39:44.669Z,14.77
2023-04-11T09:44:46.304Z,14.94
2023-04-11T09:49:48.495Z,15.08
2023-04-11T09:54:51.162Z,15.29
2023-04-11T09:59:53.478Z,15.33
2023-04-11T10:05:00.237Z,15.15
2023-04-11T10:10:03.419Z,15.14
2023-04-11T10:15:08.650Z,15.03
2023-04-11T10:20:46.074Z,14.82
2023-04-11T10:25:55.708Z,14.75
2023-04-11T10:31:04.041Z,14.51
2023-04-11T10:36:09.890Z,14.38
2023-04-11T10:41:25.287Z,14.27
2023-04-11T10:46:26.969Z,14.16
2023-04-11T10:51:30.458Z,13.93
2023-04-11T10:56:45.448Z,13.89
2023-04-11T11:01:55.094Z,13.81
2023-04-11T11:06:58.254Z,13.72
2023-04-11T11:12:07.571Z,13.62
2023-04-11T11:17:10.926Z,13.56
2023-04-11T11:22:25.727Z,13.49
2023-04-11T11:27:28.478Z,13.50
2023-04-11T11:32:32.615Z,13.45
2023-04-11T11:37:34.433Z,13.40
2023-04-11T11:42:36.862Z,13.29
2023-04-11T11:47:42.769Z,13.40
2023-04-11T11:52:44.829Z,13.42
2023-04-11T11:57:47.764Z,13.38
2023-04-11T12:02:52.086Z,13.44
2023-04-11T12:07:54.953Z,13.43
2023-04-11T12:12:56.908Z,13.54
2023-04-11T12:17:58.901Z,13.77
2023-04-11T12:23:00.846Z,13.89
2023-04-11T12:28:02.513Z,13.82
2023-04-11T12:33:05.049Z,14.17
2023-04-11T12:38:07.829Z,14.32
2023-04-11T12:43:09.455Z,14.44
2023-04-11T12:48:11.347Z,14.61
2023-04-11T12:53:12.967Z,14.64
2023-04-11T12:58:14.767Z,14.75
2023-04-11T13:03:17.225Z,14.62
2023-04-11T13:08:19.319Z,14.29
2023-04-11T13:13:20.911Z,14.22
2023-04-11T13:18:22.606Z,14.27
2023-04-11T13:23:24.304Z,13.81
2023-04-11T13:28:25.909Z,13.45
2023-04-11T13:33:27.609Z,13.19
2023-04-11T13:38:29.592Z,12.88
2023-04-11T13:43:31.500Z,12.64
2023-04-11T13:48:33.272Z,12.45
2023-04-11T13:53:35.056Z,12.71
2023-04-11T13:58:38.185Z,12.57
2023-04-11T14:03:42.888Z,12.62
2023-04-11T14:08:45.385Z,12.76
2023-04-11T14:13:47.085Z,12.72
2023-04-11T14:18:48.695Z,12.81
2023-04-11T14:23:50.562Z,12.73
2023-04-11T14:28:52.657Z,12.84
2023-04-11T14:33:54.659Z,12.87
2023-04-11T14:38:56.595Z,13.05
2023-04-11T14:43:58.458Z,13.19
2023-04-11T14:49:00.425Z,13.30
2023-04-11T14:54:02.119Z,13.30
2023-04-11T14:59:04.052Z,13.31
2023-04-11T15:04:06.436Z,13.89
2023-04-11T15:09:08.417Z,14.06
2023-04-11T15:14:10.149Z,13.84
2023-04-11T15:19:12.008Z,13.86
2023-04-11T15:24:14.073Z,13.97
2023-04-11T15:29:15.907Z,13.99
2023-04-11T15:34:17.617Z,13.63
2023-04-11T15:39:19.267Z,13.60
2023-04-11T15:44:21.022Z,13.45
2023-04-11T15:49:23.173Z,13.30
2023-04-11T15:54:25.035Z,13.62
2023-04-11T15:59:26.842Z,13.93
2023-04-11T16:04:29.804Z,14.00
2023-04-11T16:09:31.825Z,13.79
2023-04-11T16:14:33.435Z,13.56
2023-04-11T16:19:35.054Z,13.47
2023-04-11T16:24:36.634Z,13.37
2023-04-11T16:29:38.360Z,13.34
2023-04-11T16:34:40.059Z,13.21
2023-04-11T16:39:41.852Z,13.10
2023-04-11T16:44:43.495Z,12.94
2023-04-11T16:49:45.772Z,12.57
2023-04-11T16:54:48.831Z,12.37
2023-04-11T16:59:51.563Z,12.16
2023-04-11T17:04:53.209Z,12.10
2023-04-11T17:09:54.814Z,11.91
2023-04-11T17:14:56.691Z,11.75
2023-04-11T17:19:58.541Z,11.58
2023-04-11T17:25:00.430Z,11.55
2023-04-11T17:30:02.337Z,11.50
2023-04-11T17:35:05.821Z,10.93
2023-04-11T17:40:12.040Z,10.87
2023-04-11T17:45:17.539Z,9.89
2023-04-11T17:50:20.174Z,9.22
2023-04-11T17:55:22.225Z,9.39
2023-04-11T18:00:26.159Z,9.17
2023-04-11T18:05:30.960Z,9.26
2023-04-11T18:10:32.757Z,9.31
2023-04-11T18:15:34.542Z,9.37
2023-04-11T18:20:36.364Z,9.39
2023-04-11T18:25:37.993Z,9.34
2023-04-11T18:30:39.648Z,9.33
2023-04-11T18:35:41.700Z,9.37
2023-04-11T18:40:43.671Z,9.30
2023-04-11T18:45:46.526Z,9.13
2023-04-11T18:50:58.126Z,9.08
2023-04-11T18:56:03.070Z,9.08
2023-04-11T19:01:14.746Z,9.08
2023-04-11T19:06:18.325Z,8.92
2023-04-11T19:11:20.209Z,8.75
2023-04-11T19:16:21.909Z,8.64
2023-04-11T19:21:23.609Z,8.49
2023-04-11T19:26:28.531Z,8.41
2023-04-11T19:31:32.357Z,8.40
2023-04-11T19:36:34.616Z,8.38
2023-04-11T19:41:36.353Z,8.35
2023-04-11T19:46:38.048Z,8.29
2023-04-11T19:51:40.634Z,8.23
2023-04-11T19:56:45.424Z,8.09
2023-04-11T20:01:47.280Z,7.99
2023-04-11T20:06:50.910Z,7.84
2023-04-11T20:11:52.543Z,7.78
2023-04-11T20:16:54.551Z,7.75
2023-04-11T20:21:56.283Z,7.67
2023-04-11T20:26:57.941Z,7.63
2023-04-11T20:31:59.665Z,7.63
2023-04-11T20:37:01.328Z,7.56
2023-04-11T20:42:03.213Z,7.52
2023-04-11T20:47:04.964Z,7.42
2023-04-11T20:52:06.833Z,7.31
2023-04-11T20:57:08.444Z,7.29
2023-04-11T21:02:10.188Z,7.21
2023-04-11T21:07:11.968Z,7.13
2023-04-11T21:12:13.836Z,6.82
2023-04-11T21:17:15.445Z,6.81
2023-04-11T21:22:17.064Z,6.73
2023-04-11T21:27:18.655Z,6.62
2023-04-11T21:32:20.514Z,6.55
2023-04-11T21:37:22.147Z,6.43
2023-04-11T21:42:23.830Z,6.29
2023-04-11T21:47:25.986Z,6.20
2023-04-11T21:52:27.703Z,6.00
2023-04-11T21:57:32.689Z,5.89
2023-04-11T22:02:35.715Z,5.84
2023-04-11T22:07:49.143Z,5.80
2023-04-11T22:12:53.605Z,5.78
2023-04-11T22:17:56.382Z,5.78
2023-04-11T22:22:58.306Z,5.88
2023-04-11T22:28:00.034Z,6.07
2023-04-11T22:33:01.945Z,6.34
2023-04-11T22:38:03.838Z,6.54
2023-04-11T22:43:05.686Z,6.65
2023-04-11T22:48:07.330Z,6.78
2023-04-11T22:53:09.492Z,6.95
2023-04-11T22:58:11.269Z,6.97
2023-04-11T23:03:14.191Z,6.99
2023-04-11T23:08:16.084Z,7.06
2023-04-11T23:13:17.683Z,7.06
2023-04-11T23:18:19.466Z,7.03
2023-04-11T23:23:21.183Z,7.02
2023-04-11T23:28:24.166Z,6.93
2023-04-11T23:33:26.815Z,6.90
2023-04-11T23:38:28.934Z,6.87
2023-04-11T23:43:30.692Z,6.79
2023-04-11T23:48:32.633Z,6.72
2023-04-11T23:53:34.336Z,6.65
2023-04-11T23:58:36.024Z,6.58
